LSZB/BRN METAR and TAF weather

Enter ICAO airport designator
Station Type Date Time Source
LSZB METAR 2020/01/24 03:20 UTC NOAA

LSZB 240320Z AUTO 12003KT 060V160 2200 BR SCT002 M02/M02 Q1026


Station Type Date Time Source
LSZB Decoded METAR 2020/01/24 03:20 UTC NOAA

Bern / Belp , Switzerland (LSZB) 46-55N 007-30E
Jan 23, 2020 - 10:20 PM EST / 2020.01.24 0320 UTC
Wind: from the ESE (120 degrees) at 3 MPH (3 KT) (direction variable):0
Visibility: 1 mile(s):0
Sky conditions: partly cloudy
Weather: mist
Temperature: 28 F (-2 C)
Dew Point: 28 F (-2 C)
Relative Humidity: 100%
Pressure (altimeter): 30.30 in. Hg (1026 hPa)
ob: LSZB 240320Z AUTO 12003KT 060V160 2200 BR SCT002 M02/M02 Q1026
cycle: 3

Station Type Date Time Source
LSZB TAF 2014/12/22 20:03 UTC NOAA

TAF
AMD TAF
AMD LSZB 222054Z 2220/2224 CNL

Example: see airport list